Time;durP1;ratioP1;P1;durP2;ratioP2;P2;SDS_P1;SDS_P2;PMS_P1;PMS_P2;Temp;Humidity;BMP_temperature;BMP_pressure;BME280_temperature;BME280_humidity;BME280_pressure;Samples;Min_cycle;Max_cycle;Signal;HPM_P1;HPM_P2
2021/07/05 00:00:47;;;;;;;12.60;7.70;;;20.00;97.30;;;;;;4913378;29;20423;-91
2021/07/05 00:34:56;;;;;;;8.67;6.67;;;19.60;97.30;;;;;;5012775;28;20451;-91
2021/07/05 00:38:06;;;;;;;10.83;7.63;;;19.50;97.30;;;;;;4992954;28;20408;-91
2021/07/05 00:44:15;;;;;;;13.27;8.27;;;19.50;97.30;;;;;;5060262;22;20460;-89
2021/07/05 00:46:47;;;;;;;12.90;7.30;;;19.50;97.30;;;;;;5030973;28;20775;-89
2021/07/05 00:49:16;;;;;;;10.40;7.03;;;19.40;97.30;;;;;;5031927;28;20422;-89
2021/07/05 00:51:57;;;;;;;11.23;7.30;;;19.40;97.30;;;;;;5014103;28;20415;-89
2021/07/05 00:54:25;;;;;;;11.67;7.57;;;19.40;97.30;;;;;;5014205;28;20457;-90
2021/07/05 00:56:54;;;;;;;11.13;6.90;;;19.40;97.30;;;;;;5014518;28;20423;-90
2021/07/05 00:59:27;;;;;;;10.60;7.40;;;19.40;97.30;;;;;;5014984;28;20422;-89
2021/07/05 01:01:53;;;;;;;9.77;7.03;;;19.40;97.30;;;;;;5015896;28;20407;-89
2021/07/05 01:04:20;;;;;;;11.40;6.40;;;19.40;97.30;;;;;;5017192;28;20467;-89
2021/07/05 01:06:46;;;;;;;7.83;6.37;;;19.40;97.30;;;;;;5016974;28;20250;-89
2021/07/05 01:09:11;;;;;;;8.80;6.70;;;19.40;97.30;;;;;;5016809;28;20407;-89
2021/07/05 01:11:37;;;;;;;9.83;6.60;;;19.40;97.30;;;;;;5017444;28;20240;-89
2021/07/05 01:14:03;;;;;;;11.20;7.30;;;19.40;97.30;;;;;;5016946;28;20180;-90
2021/07/05 01:16:33;;;;;;;10.60;7.27;;;19.40;97.30;;;;;;5033552;28;20181;-89
2021/07/05 01:18:58;;;;;;;11.30;7.27;;;19.30;97.30;;;;;;5014360;28;20264;-89
2021/07/05 01:21:24;;;;;;;13.30;7.70;;;19.30;97.30;;;;;;5013558;28;20462;-89
2021/07/05 01:23:54;;;;;;;11.07;7.50;;;19.20;97.30;;;;;;5014615;28;20678;-89
2021/07/05 01:26:22;;;;;;;11.00;6.90;;;19.20;97.30;;;;;;5014647;28;20627;-89
2021/07/05 01:28:47;;;;;;;11.93;7.00;;;19.20;97.30;;;;;;5014193;28;20468;-89
2021/07/05 01:31:13;;;;;;;11.03;7.43;;;19.20;97.30;;;;;;5012693;28;21004;-89
2021/07/05 01:33:38;;;;;;;13.30;7.00;;;19.10;97.30;;;;;;5014354;28;20186;-89
2021/07/05 01:36:04;;;;;;;9.47;7.10;;;19.10;97.30;;;;;;5014535;28;20291;-90
2021/07/05 01:38:29;;;;;;;8.53;6.73;;;19.10;97.30;;;;;;5013138;28;20311;-89
2021/07/05 01:41:02;;;;;;;10.20;7.03;;;19.10;97.30;;;;;;5015066;28;20211;-89
2021/07/05 01:43:28;;;;;;;10.47;6.63;;;19.10;97.30;;;;;;5018499;28;20208;-89
2021/07/05 01:45:54;;;;;;;9.00;6.50;;;19.00;97.30;;;;;;5018632;28;20563;-89
2021/07/05 01:48:24;;;;;;;14.20;7.50;;;19.00;97.30;;;;;;5018433;28;20513;-89
2021/07/05 01:50:50;;;;;;;12.07;7.90;;;18.90;97.30;;;;;;5019051;28;20176;-89
2021/07/05 01:53:18;;;;;;;9.50;6.77;;;19.00;97.30;;;;;;5019165;28;20484;-89
2021/07/05 01:55:45;;;;;;;11.33;6.60;;;18.90;97.30;;;;;;5018879;28;20201;-90
2021/07/05 01:58:10;;;;;;;15.50;6.87;;;18.90;97.30;;;;;;5018138;28;20419;-89
2021/07/05 02:00:40;;;;;;;11.37;7.47;;;18.90;97.30;;;;;;5018160;28;20423;-89
2021/07/05 02:03:06;;;;;;;8.90;6.23;;;18.90;97.30;;;;;;5018008;28;20212;-90
2021/07/05 02:05:32;;;;;;;10.03;6.60;;;18.90;97.30;;;;;;5017885;28;20442;-89
2021/07/05 02:07:59;;;;;;;14.67;6.90;;;18.90;97.30;;;;;;5018003;28;20177;-89
2021/07/05 02:10:30;;;;;;;10.90;6.83;;;18.90;97.30;;;;;;5016972;28;20477;-90
2021/07/05 02:12:58;;;;;;;14.50;7.40;;;18.90;97.30;;;;;;5016419;28;20502;-88
2021/07/05 02:15:25;;;;;;;9.70;6.40;;;18.90;97.30;;;;;;5016693;28;20881;-90
2021/07/05 02:17:53;;;;;;;10.87;6.80;;;18.80;97.30;;;;;;5033724;28;20777;-89
2021/07/05 02:20:22;;;;;;;7.77;5.70;;;18.80;97.30;;;;;;5035003;28;20411;-89
2021/07/05 02:22:51;;;;;;;10.57;6.13;;;18.80;97.30;;;;;;5017235;28;20423;-89
2021/07/05 02:25:18;;;;;;;8.83;6.70;;;18.80;97.30;;;;;;5017910;28;20489;-89
2021/07/05 02:27:46;;;;;;;8.70;5.77;;;18.80;97.30;;;;;;5017532;28;20506;-89
2021/07/05 02:30:17;;;;;;;8.40;6.13;;;18.80;97.30;;;;;;5018540;28;20819;-89
2021/07/05 02:32:44;;;;;;;10.97;6.30;;;18.70;97.30;;;;;;5018349;28;20404;-89
2021/07/05 02:35:13;;;;;;;8.20;5.27;;;18.80;97.30;;;;;;5035579;28;20427;-89
2021/07/05 02:37:41;;;;;;;10.50;5.27;;;18.80;97.30;;;;;;5016305;28;20415;-89
2021/07/05 02:40:09;;;;;;;8.53;5.40;;;18.80;97.30;;;;;;5018243;28;20415;-89
2021/07/05 02:42:35;;;;;;;10.67;5.40;;;18.70;97.30;;;;;;5018137;28;20416;-89
2021/07/05 02:45:05;;;;;;;5.40;4.53;;;18.80;97.30;;;;;;5018778;28;20471;-89
2021/07/05 02:47:31;;;;;;;9.67;4.90;;;18.80;97.30;;;;;;5019058;28;20667;-89
2021/07/05 02:49:57;;;;;;;7.30;5.30;;;18.70;97.30;;;;;;5019281;28;20427;-90
2021/07/05 02:52:22;;;;;;;6.50;5.17;;;18.70;97.30;;;;;;5017952;28;20188;-88
2021/07/05 02:54:48;;;;;;;8.03;5.10;;;18.70;97.30;;;;;;5019195;28;20846;-91
2021/07/05 02:57:29;;;;;;;6.40;5.07;;;18.70;97.30;;;;;;5035446;28;20192;-90
2021/07/05 03:00:01;;;;;;;6.20;4.43;;;18.70;97.30;;;;;;5017350;28;20773;-89
2021/07/05 03:02:36;;;;;;;6.90;4.47;;;18.70;97.30;;;;;;5016422;28;20416;-90
2021/07/05 03:05:03;;;;;;;6.97;5.00;;;18.80;97.30;;;;;;5014635;28;20461;-89
2021/07/05 03:07:31;;;;;;;6.30;5.10;;;18.70;97.30;;;;;;5016802;28;20418;-90
2021/07/05 03:09:56;;;;;;;6.33;5.03;;;18.80;97.30;;;;;;5034850;28;20437;-89
2021/07/05 03:12:22;;;;;;;7.10;4.80;;;18.80;97.30;;;;;;5034572;28;20400;-90
2021/07/05 03:14:47;;;;;;;6.97;5.03;;;18.80;97.30;;;;;;5016964;28;20196;-89
2021/07/05 03:17:13;;;;;;;6.63;5.17;;;18.80;97.30;;;;;;5034978;28;20227;-89
2021/07/05 03:19:39;;;;;;;7.07;4.97;;;18.80;97.30;;;;;;5034829;28;20192;-90
2021/07/05 03:22:05;;;;;;;6.87;5.13;;;18.80;97.30;;;;;;5035095;28;20450;-90
2021/07/05 03:24:33;;;;;;;6.30;4.63;;;18.80;97.30;;;;;;5017432;28;20223;-89
2021/07/05 03:27:00;;;;;;;9.50;4.90;;;18.80;97.30;;;;;;5017662;28;20848;-89
2021/07/05 03:29:26;;;;;;;5.43;4.30;;;18.80;97.30;;;;;;5017952;28;20415;-89
2021/07/05 03:31:54;;;;;;;5.83;4.50;;;18.80;97.30;;;;;;5018184;28;20426;-89
2021/07/05 03:34:28;;;;;;;11.70;4.70;;;18.80;97.30;;;;;;5018566;28;20200;-89
2021/07/05 03:36:54;;;;;;;7.47;5.60;;;18.80;97.30;;;;;;5018847;28;20429;-89
2021/07/05 03:39:19;;;;;;;7.50;4.97;;;18.70;97.30;;;;;;5017753;28;20419;-89
2021/07/05 03:41:45;;;;;;;7.07;4.93;;;18.60;97.30;;;;;;5018083;28;20237;-89
2021/07/05 03:44:12;;;;;;;6.40;4.77;;;18.50;97.30;;;;;;5016699;28;20204;-89
2021/07/05 03:46:42;;;;;;;8.37;4.90;;;18.50;97.30;;;;;;5016457;28;20176;-89
2021/07/05 03:49:08;;;;;;;9.80;5.30;;;18.40;97.30;;;;;;5015232;28;20415;-88
2021/07/05 03:51:33;;;;;;;10.57;5.33;;;18.40;97.30;;;;;;5014555;28;20785;-89
2021/07/05 03:54:01;;;;;;;6.60;5.00;;;18.40;97.30;;;;;;5013882;28;20207;-88
2021/07/05 03:56:26;;;;;;;11.97;5.60;;;18.30;97.30;;;;;;5014206;28;20173;-88
2021/07/05 03:58:52;;;;;;;8.47;5.93;;;18.30;97.30;;;;;;5014084;28;20424;-88
2021/07/05 04:01:27;;;;;;;9.07;6.40;;;18.20;97.30;;;;;;5014087;28;20550;-89
2021/07/05 04:03:55;;;;;;;9.80;5.60;;;18.10;97.30;;;;;;5013795;28;20208;-88
2021/07/05 04:06:27;;;;;;;12.63;6.30;;;18.10;97.30;;;;;;5006379;28;20420;-88
2021/07/05 04:08:58;;;;;;;13.57;6.13;;;18.00;97.30;;;;;;4994683;28;20961;-88
2021/07/05 04:11:26;;;;;;;9.27;6.00;;;18.00;97.30;;;;;;4995187;28;20412;-88
2021/07/05 04:13:54;;;;;;;10.33;6.07;;;17.90;97.30;;;;;;4995168;28;20780;-88
2021/07/05 04:16:22;;;;;;;13.40;6.60;;;17.90;97.30;;;;;;4995899;28;20442;-89
2021/07/05 04:18:47;;;;;;;15.63;6.30;;;17.80;97.30;;;;;;4995873;28;20428;-88
2021/07/05 04:21:13;;;;;;;13.13;6.17;;;17.80;97.30;;;;;;4997130;28;20999;-89
2021/07/05 04:23:41;;;;;;;10.80;6.23;;;17.80;97.30;;;;;;4996194;28;20209;-88
2021/07/05 04:26:06;;;;;;;9.50;5.90;;;17.70;97.30;;;;;;4995539;28;20292;-88
2021/07/05 04:28:32;;;;;;;10.60;6.40;;;17.70;97.30;;;;;;4995593;28;20528;-88
2021/07/05 04:30:57;;;;;;;11.60;6.70;;;17.70;97.30;;;;;;5012265;28;20599;-88
2021/07/05 04:33:23;;;;;;;12.80;6.57;;;17.70;97.30;;;;;;4993964;28;20272;-88
2021/07/05 04:35:49;;;;;;;12.23;7.00;;;17.70;97.30;;;;;;4993807;28;20296;-88
2021/07/05 04:38:14;;;;;;;13.10;6.20;;;17.70;97.30;;;;;;4995224;28;20420;-88
2021/07/05 04:40:42;;;;;;;16.47;7.20;;;17.70;97.30;;;;;;4995449;28;20706;-88
2021/07/05 04:43:12;;;;;;;10.47;6.47;;;17.60;97.30;;;;;;4995051;28;20213;-88
2021/07/05 04:45:38;;;;;;;14.67;7.30;;;17.60;97.30;;;;;;4994816;28;20546;-88
2021/07/05 04:48:06;;;;;;;15.33;7.33;;;17.70;97.30;;;;;;4995440;28;20558;-88
2021/07/05 04:50:32;;;;;;;10.87;6.77;;;17.70;97.30;;;;;;4995881;28;20184;-88
2021/07/05 04:52:59;;;;;;;13.53;6.83;;;17.70;97.30;;;;;;4997290;28;20412;-88
2021/07/05 04:55:25;;;;;;;11.33;6.90;;;17.70;97.30;;;;;;4996147;28;20431;-88
2021/07/05 04:57:53;;;;;;;12.80;7.30;;;17.70;97.30;;;;;;4996148;28;20927;-88
2021/07/05 05:00:24;;;;;;;10.70;6.77;;;17.70;97.30;;;;;;4996280;28;20409;-87
2021/07/05 05:02:56;;;;;;;13.07;6.80;;;17.70;97.30;;;;;;4994977;28;20420;-88
2021/07/05 05:05:24;;;;;;;11.10;6.67;;;17.70;97.30;;;;;;5012019;28;20450;-86
2021/07/05 05:07:57;;;;;;;13.80;6.60;;;17.70;97.30;;;;;;5011734;28;20446;-87
2021/07/05 05:10:26;;;;;;;10.87;6.17;;;17.60;97.30;;;;;;5004727;28;20790;-86
2021/07/05 05:12:57;;;;;;;11.93;7.10;;;17.60;97.30;;;;;;5015722;28;20415;-87
2021/07/05 05:15:26;;;;;;;11.30;7.00;;;17.50;97.30;;;;;;5032639;28;20435;-88
2021/07/05 05:17:54;;;;;;;15.20;8.00;;;17.50;97.30;;;;;;5034319;28;20833;-88
2021/07/05 05:20:23;;;;;;;10.50;7.33;;;17.50;97.30;;;;;;5018729;28;20502;-88
2021/07/05 05:22:52;;;;;;;12.80;7.70;;;17.50;97.30;;;;;;5017630;28;20486;-88
2021/07/05 05:25:21;;;;;;;15.43;8.20;;;17.50;97.30;;;;;;5018106;28;20530;-88
2021/07/05 05:27:48;;;;;;;15.33;6.77;;;17.50;97.30;;;;;;5018093;28;20422;-87
2021/07/05 05:30:16;;;;;;;14.40;7.37;;;17.50;97.30;;;;;;5018251;28;20446;-88
2021/07/05 05:32:44;;;;;;;12.67;7.60;;;17.50;97.30;;;;;;5017582;28;20415;-88
2021/07/05 05:35:10;;;;;;;15.03;7.23;;;17.50;97.30;;;;;;5018382;28;20435;-87
2021/07/05 05:37:36;;;;;;;16.10;7.80;;;17.50;97.30;;;;;;5018523;28;20846;-87
2021/07/05 05:40:03;;;;;;;11.83;6.93;;;17.50;97.30;;;;;;5036308;28;20506;-88
2021/07/05 05:42:29;;;;;;;11.27;6.30;;;17.60;97.30;;;;;;5018533;28;20183;-88
2021/07/05 05:44:54;;;;;;;16.20;7.67;;;17.60;97.30;;;;;;5018058;28;20471;-88
2021/07/05 05:47:22;;;;;;;12.17;7.40;;;17.50;97.30;;;;;;5018783;28;20267;-88
2021/07/05 05:49:47;;;;;;;12.73;7.57;;;17.60;97.30;;;;;;5037014;28;20179;-89
2021/07/05 05:52:13;;;;;;;13.10;7.43;;;17.60;97.30;;;;;;5019214;28;21001;-87
2021/07/05 05:54:46;;;;;;;9.30;5.60;;;17.60;97.30;;;;;;5019341;28;20222;-88
2021/07/05 05:57:27;;;;;;;9.43;5.97;;;17.60;97.30;;;;;;5019694;28;20642;-87
2021/07/05 05:59:58;;;;;;;12.10;7.17;;;17.60;97.30;;;;;;5019633;28;20437;-88
2021/07/05 06:02:47;;;;;;;9.93;5.87;;;17.60;97.30;;;;;;5018391;28;21004;-88
2021/07/05 06:05:16;;;;;;;11.80;6.70;;;17.60;97.30;;;;;;5019692;28;20973;-85
2021/07/05 06:07:57;;;;;;;10.13;6.63;;;17.60;97.30;;;;;;5007932;28;20452;-89
2021/07/05 06:10:26;;;;;;;11.33;6.90;;;17.70;97.30;;;;;;5001094;28;20423;-88
2021/07/05 06:12:56;;;;;;;10.00;6.53;;;17.70;97.30;;;;;;5003735;28;20427;-88
2021/07/05 06:15:24;;;;;;;11.13;6.27;;;17.70;97.30;;;;;;4997516;28;20482;-88
2021/07/05 06:17:55;;;;;;;10.37;6.80;;;17.70;97.30;;;;;;5008347;28;20757;-89
2021/07/05 06:20:24;;;;;;;9.60;6.50;;;17.70;97.30;;;;;;5014778;28;20415;-89
2021/07/05 06:22:54;;;;;;;10.00;6.87;;;17.80;97.30;;;;;;5012316;28;20918;-89
2021/07/05 06:25:25;;;;;;;8.67;6.03;;;17.80;97.30;;;;;;5012009;28;20824;-89
2021/07/05 06:27:54;;;;;;;9.23;6.10;;;17.70;97.30;;;;;;5015925;28;20437;-88
2021/07/05 06:30:31;;;;;;;8.90;7.00;;;17.80;97.30;;;;;;5016158;28;21017;-88
2021/07/05 06:32:56;;;;;;;12.07;6.90;;;17.80;97.30;;;;;;5016455;28;20501;-88
2021/07/05 06:35:22;;;;;;;12.10;6.73;;;17.80;97.30;;;;;;5015527;28;21059;-88
2021/07/05 06:37:47;;;;;;;9.67;6.57;;;17.80;97.30;;;;;;5011517;28;20651;-88
2021/07/05 06:40:13;;;;;;;13.07;6.57;;;17.80;97.30;;;;;;5009113;28;20164;-88
2021/07/05 06:42:46;;;;;;;14.10;6.93;;;17.80;97.30;;;;;;5007702;28;20230;-88
2021/07/05 06:45:14;;;;;;;12.83;7.40;;;17.90;97.30;;;;;;5004647;28;20225;-89
2021/07/05 06:47:39;;;;;;;15.37;8.30;;;17.80;97.30;;;;;;5004825;28;20424;-90
2021/07/05 06:50:06;;;;;;;11.93;7.47;;;17.90;97.30;;;;;;5007592;28;20427;-88
2021/07/05 06:52:33;;;;;;;9.63;7.00;;;17.90;97.30;;;;;;5008711;28;20256;-88
2021/07/05 06:55:03;;;;;;;11.07;7.10;;;17.90;97.30;;;;;;5000612;28;20435;-88
2021/07/05 06:57:29;;;;;;;9.13;6.60;;;17.90;97.30;;;;;;4995417;28;20423;-88
2021/07/05 06:59:56;;;;;;;12.00;7.37;;;18.00;97.30;;;;;;5009196;28;20513;-88
2021/07/05 07:02:21;;;;;;;15.33;8.67;;;18.10;97.30;;;;;;5014652;28;20203;-88
2021/07/05 07:04:47;;;;;;;12.23;7.93;;;18.20;97.30;;;;;;5014474;28;20498;-88
2021/07/05 07:07:15;;;;;;;10.77;7.47;;;18.30;97.30;;;;;;5031684;28;20181;-91
2021/07/05 07:09:40;;;;;;;9.87;6.60;;;18.40;97.30;;;;;;5013589;28;20255;-88
2021/07/05 07:12:06;;;;;;;9.80;6.80;;;18.40;97.30;;;;;;5015423;28;20506;-88
2021/07/05 07:14:31;;;;;;;9.23;6.50;;;18.40;97.30;;;;;;5015704;28;20200;-88
2021/07/05 07:17:05;;;;;;;9.23;6.40;;;18.40;97.30;;;;;;5016461;28;20172;-89
2021/07/05 07:19:34;;;;;;;8.17;5.43;;;18.50;97.30;;;;;;5023202;28;20203;-88
2021/07/05 07:22:03;;;;;;;8.57;6.10;;;18.50;97.30;;;;;;5025569;28;20423;-89
2021/07/05 07:24:32;;;;;;;10.13;7.17;;;18.60;97.30;;;;;;5015596;28;20470;-88
2021/07/05 07:26:59;;;;;;;8.47;6.10;;;18.70;97.30;;;;;;5016582;28;20423;-88
2021/07/05 07:29:24;;;;;;;8.40;6.00;;;18.80;97.30;;;;;;5016674;28;20423;-90
2021/07/05 07:31:50;;;;;;;9.53;6.50;;;18.80;97.30;;;;;;5017312;28;20550;-87
2021/07/05 07:34:15;;;;;;;10.30;6.60;;;18.90;97.30;;;;;;5016379;28;20219;-87
2021/07/05 07:36:42;;;;;;;15.93;6.63;;;19.00;97.30;;;;;;5034079;28;20185;-87
2021/07/05 07:39:15;;;;;;;10.83;7.20;;;19.10;97.30;;;;;;5014897;28;20187;-89
2021/07/05 07:41:42;;;;;;;8.27;6.10;;;19.30;97.30;;;;;;5014710;28;20423;-88
2021/07/05 07:44:08;;;;;;;9.43;6.30;;;19.40;97.30;;;;;;5031866;28;20463;-88
2021/07/05 07:46:34;;;;;;;10.03;6.40;;;19.40;97.30;;;;;;5013987;28;20446;-89
2021/07/05 07:48:59;;;;;;;7.10;5.57;;;19.50;97.30;;;;;;5014046;28;20259;-88
2021/07/05 07:51:25;;;;;;;9.80;5.80;;;19.50;97.30;;;;;;5014555;28;20173;-88
2021/07/05 07:53:51;;;;;;;11.93;6.70;;;19.50;97.30;;;;;;5032433;28;20686;-89
2021/07/05 07:56:17;;;;;;;8.73;6.03;;;19.60;97.30;;;;;;5013868;28;20987;-88
2021/07/05 07:58:43;;;;;;;9.93;6.23;;;19.60;97.30;;;;;;5014353;28;20216;-88
2021/07/05 08:01:11;;;;;;;8.17;5.90;;;19.70;97.30;;;;;;5015112;28;20411;-89
2021/07/05 08:03:36;;;;;;;6.73;5.40;;;19.80;97.30;;;;;;5015069;28;20740;-87
2021/07/05 08:06:04;;;;;;;8.83;5.30;;;19.80;97.30;;;;;;5013930;28;20526;-88
2021/07/05 08:08:30;;;;;;;8.70;5.77;;;19.80;97.30;;;;;;5013387;28;20180;-88
2021/07/05 08:10:56;;;;;;;9.43;5.50;;;20.00;97.30;;;;;;5015491;28;20419;-88
2021/07/05 08:13:21;;;;;;;10.43;5.57;;;20.00;97.30;;;;;;5015777;28;20228;-88
2021/07/05 08:15:52;;;;;;;5.67;4.40;;;20.10;97.30;;;;;;5016034;28;20294;-88
2021/07/05 08:18:18;;;;;;;6.30;4.70;;;20.20;97.30;;;;;;5015964;28;20259;-88
2021/07/05 08:20:43;;;;;;;4.47;3.83;;;20.10;97.30;;;;;;5015609;28;20898;-88
2021/07/05 08:23:13;;;;;;;8.20;4.40;;;20.20;97.30;;;;;;5014839;28;20709;-88
2021/07/05 08:25:39;;;;;;;7.63;4.60;;;20.20;97.30;;;;;;5013735;28;20530;-88
2021/07/05 08:28:05;;;;;;;6.10;3.47;;;20.30;97.30;;;;;;5013692;28;20478;-88
2021/07/05 08:30:31;;;;;;;5.10;3.90;;;20.40;97.30;;;;;;5013770;28;20195;-88
2021/07/05 08:32:57;;;;;;;6.53;3.93;;;20.40;97.30;;;;;;5014668;28;20685;-87
2021/07/05 08:35:24;;;;;;;4.50;3.60;;;20.50;97.30;;;;;;5014584;28;20227;-89
2021/07/05 08:37:53;;;;;;;4.60;3.40;;;20.60;97.30;;;;;;5014698;28;20415;-88
2021/07/05 08:40:21;;;;;;;5.07;3.40;;;20.70;97.30;;;;;;5015226;28;20905;-88
2021/07/05 08:42:47;;;;;;;4.97;3.50;;;20.90;97.30;;;;;;5013576;28;20476;-89
2021/07/05 08:45:13;;;;;;;4.40;3.40;;;21.00;97.30;;;;;;5014092;28;20474;-88
2021/07/05 08:47:47;;;;;;;4.37;3.50;;;21.10;97.30;;;;;;5011513;28;20419;-86
2021/07/05 08:50:16;;;;;;;5.10;3.43;;;21.10;97.30;;;;;;5015513;28;20430;-87
2021/07/05 08:52:45;;;;;;;4.13;2.90;;;21.20;97.30;;;;;;5015412;28;20495;-89
2021/07/05 08:55:24;;;;;;;6.00;2.70;;;21.30;97.30;;;;;;5015079;28;20454;-88
2021/07/05 08:57:54;;;;;;;3.27;2.50;;;21.40;97.20;;;;;;5019692;28;20479;-89
2021/07/05 09:00:23;;;;;;;4.63;3.20;;;21.50;97.30;;;;;;5022418;28;20434;-89
2021/07/05 09:02:49;;;;;;;5.23;3.40;;;21.70;97.30;;;;;;5017355;28;20441;-89
2021/07/05 09:05:16;;;;;;;3.40;2.83;;;21.90;97.30;;;;;;5032000;28;21001;-88
2021/07/05 09:08:03;;;;;;;3.10;2.83;;;22.00;97.30;;;;;;5014496;28;20442;-88
2021/07/05 09:10:52;;;;;;;4.40;3.27;;;22.20;97.30;;;;;;5015884;28;20415;-88
2021/07/05 09:13:19;;;;;;;7.57;3.07;;;22.30;97.30;;;;;;5015168;28;20424;-90
2021/07/05 09:15:51;;;;;;;6.93;2.67;;;22.30;96.50;;;;;;5011996;28;20462;-88
2021/07/05 09:18:27;;;;;;;7.60;2.73;;;22.20;95.30;;;;;;5012795;28;20429;-88
2021/07/05 09:20:54;;;;;;;2.60;2.40;;;22.20;96.60;;;;;;5013445;28;20429;-88
2021/07/05 09:23:22;;;;;;;5.50;2.60;;;22.10;94.40;;;;;;5018217;28;20822;-88
2021/07/05 09:25:50;;;;;;;4.53;2.47;;;22.20;95.30;;;;;;5012750;28;20516;-89
2021/07/05 09:28:17;;;;;;;6.30;2.93;;;22.20;94.40;;;;;;5012343;28;20956;-90
2021/07/05 09:30:48;;;;;;;2.67;2.13;;;22.30;96.10;;;;;;5014633;28;20438;-88
2021/07/05 09:33:24;;;;;;;3.00;2.20;;;22.40;94.70;;;;;;5016033;28;20415;-88
2021/07/05 09:36:03;;;;;;;2.70;2.47;;;22.40;92.70;;;;;;5014527;28;20977;-89
2021/07/05 09:38:38;;;;;;;3.37;2.20;;;22.50;95.80;;;;;;5032533;28;20510;-88
2021/07/05 09:41:21;;;;;;;9.30;2.73;;;22.60;94.80;;;;;;5015226;28;20422;-88
2021/07/05 09:43:53;;;;;;;2.70;2.50;;;22.70;93.60;;;;;;5033226;28;20468;-88
2021/07/05 09:46:45;;;;;;;2.37;2.17;;;22.80;95.00;;;;;;5015673;28;20462;-89
2021/07/05 09:49:15;;;;;;;2.50;2.27;;;22.80;93.20;;;;;;5016202;28;20419;-88
2021/07/05 09:52:04;;;;;;;3.33;2.43;;;22.80;93.70;;;;;;5017765;28;20415;-89
2021/07/05 09:54:31;;;;;;;2.83;2.17;;;22.80;91.50;;;;;;5014504;28;20489;-89
2021/07/05 09:56:56;;;;;;;2.87;2.03;;;22.80;90.80;;;;;;5014867;28;20809;-89
2021/07/05 09:59:24;;;;;;;3.70;2.40;;;22.90;92.00;;;;;;5013666;28;20545;-89
2021/07/05 10:02:06;;;;;;;4.47;2.83;;;22.90;90.40;;;;;;5022163;28;20181;-89
2021/07/05 10:04:38;;;;;;;3.90;2.63;;;23.00;90.60;;;;;;5022391;28;20471;-89
2021/07/05 10:07:06;;;;;;;3.20;2.03;;;23.00;91.70;;;;;;5008893;28;20431;-89
2021/07/05 10:09:38;;;;;;;2.80;2.33;;;23.10;91.30;;;;;;5025264;28;20442;-88
2021/07/05 10:12:28;;;;;;;4.47;2.40;;;23.20;92.00;;;;;;5018677;28;20471;-89
2021/07/05 10:15:04;;;;;;;2.47;2.30;;;23.10;91.10;;;;;;5023003;28;20506;-88
2021/07/05 10:17:33;;;;;;;3.20;2.37;;;23.10;90.60;;;;;;4999840;28;20434;-86
2021/07/05 10:19:59;;;;;;;2.60;2.23;;;23.00;90.90;;;;;;5007252;28;20423;-88
2021/07/05 10:22:25;;;;;;;3.53;2.53;;;23.00;92.30;;;;;;5015985;28;20562;-87
2021/07/05 10:24:54;;;;;;;2.90;2.53;;;23.00;91.20;;;;;;4997069;28;20543;-88
2021/07/05 10:27:20;;;;;;;4.60;2.27;;;23.00;90.90;;;;;;5002971;28;20426;-87
2021/07/05 10:29:48;;;;;;;4.77;2.50;;;23.00;92.70;;;;;;5015244;28;20411;-88
2021/07/05 10:32:16;;;;;;;6.73;3.60;;;23.00;92.20;;;;;;5014679;28;20415;-87
2021/07/05 10:34:45;;;;;;;4.50;2.70;;;23.00;90.60;;;;;;5032603;28;20470;-88
2021/07/05 10:37:18;;;;;;;6.33;3.00;;;23.00;90.90;;;;;;5014740;28;20431;-86
2021/07/05 10:39:48;;;;;;;4.33;2.60;;;23.00;91.30;;;;;;5015856;28;20427;-87
2021/07/05 10:42:56;;;;;;;3.30;2.97;;;23.00;93.30;;;;;;5017044;28;20442;-88
2021/07/05 10:45:37;;;;;;;3.40;2.77;;;23.00;91.60;;;;;;4954029;28;20523;-86
2021/07/05 10:48:02;;;;;;;5.40;2.70;;;23.10;93.90;;;;;;5014991;28;20439;-88
2021/07/05 10:50:41;;;;;;;4.00;3.20;;;23.10;91.10;;;;;;5017257;28;20415;-88
2021/07/05 10:53:18;;;;;;;3.47;2.87;;;23.00;91.20;;;;;;5016548;28;20658;-87
2021/07/05 10:55:55;;;;;;;2.90;2.50;;;23.00;91.20;;;;;;5015259;28;20439;-87
2021/07/05 10:58:32;;;;;;;3.47;3.00;;;23.00;91.40;;;;;;5015541;28;20399;-87
2021/07/05 11:01:00;;;;;;;3.53;2.80;;;23.00;91.40;;;;;;5016322;28;20430;-87
2021/07/05 11:03:38;;;;;;;3.43;2.80;;;23.00;92.20;;;;;;5019375;28;20494;-88
2021/07/05 11:06:14;;;;;;;4.03;3.10;;;23.00;90.60;;;;;;5021369;28;20489;-87
2021/07/05 11:08:44;;;;;;;7.03;3.33;;;23.00;91.10;;;;;;5016204;28;20425;-87
2021/07/05 11:11:28;;;;;;;5.40;3.07;;;23.00;92.80;;;;;;5015051;28;20454;-87
2021/07/05 11:14:26;;;;;;;2.60;2.50;;;23.00;92.10;;;;;;5013539;28;20883;-88
2021/07/05 11:17:22;;;;;;;4.43;3.20;;;23.00;90.60;;;;;;5001169;28;20458;-88
2021/07/05 11:19:57;;;;;;;3.90;2.90;;;23.00;91.10;;;;;;5004113;28;20416;-87
2021/07/05 11:22:34;;;;;;;4.80;2.47;;;23.00;90.90;;;;;;4995744;28;20416;-87
2021/07/05 11:25:18;;;;;;;3.27;2.90;;;23.00;91.80;;;;;;4997633;28;20879;-87
2021/07/05 11:27:52;;;;;;;2.47;2.30;;;23.00;91.50;;;;;;4995618;28;20918;-88
2021/07/05 11:30:23;;;;;;;4.00;2.60;;;23.10;91.60;;;;;;4996127;28;20914;-88
2021/07/05 11:32:59;;;;;;;4.20;2.43;;;23.20;91.90;;;;;;5017046;28;20418;-88
2021/07/05 11:35:41;;;;;;;4.20;2.53;;;23.50;92.40;;;;;;5019396;28;20443;-88
2021/07/05 11:38:25;;;;;;;3.20;2.40;;;23.70;91.20;;;;;;5038366;28;20403;-88
2021/07/05 11:40:55;;;;;;;6.87;3.30;;;23.90;89.60;;;;;;5017653;28;20425;-87
2021/07/05 11:43:45;;;;;;;2.87;2.53;;;23.90;91.50;;;;;;5033123;28;20463;-88
2021/07/05 11:46:38;;;;;;;2.40;2.20;;;24.10;90.10;;;;;;5016134;28;21015;-88
2021/07/05 11:49:17;;;;;;;4.50;2.50;;;24.20;89.20;;;;;;5015198;28;20503;-87
2021/07/05 11:51:54;;;;;;;5.20;2.13;;;24.30;88.90;;;;;;5015158;28;20469;-87
2021/07/05 11:54:30;;;;;;;3.90;2.40;;;24.40;89.40;;;;;;5014661;28;20497;-88
2021/07/05 11:56:57;;;;;;;3.87;1.93;;;24.50;88.80;;;;;;5013597;28;20419;-87
2021/07/05 11:59:29;;;;;;;4.70;1.90;;;24.60;88.90;;;;;;5012572;28;20415;-88
2021/07/05 12:02:06;;;;;;;2.03;1.73;;;24.70;87.50;;;;;;5014439;28;20469;-88
2021/07/05 12:04:31;;;;;;;2.03;1.87;;;24.70;88.00;;;;;;5020517;28;20561;-87
2021/07/05 12:06:57;;;;;;;3.10;2.00;;;24.70;86.90;;;;;;5004694;28;20432;-87
2021/07/05 12:09:28;;;;;;;3.57;1.70;;;24.60;86.00;;;;;;4994055;28;20303;-88
2021/07/05 12:11:54;;;;;;;2.50;1.63;;;24.60;85.90;;;;;;4993329;28;20575;-88
2021/07/05 12:14:25;;;;;;;3.60;1.90;;;24.70;85.70;;;;;;4993907;28;20454;-87
2021/07/05 12:16:58;;;;;;;1.80;1.80;;;24.60;86.30;;;;;;5008055;28;20510;-87
2021/07/05 12:19:28;;;;;;;1.93;1.70;;;24.50;85.70;;;;;;5014058;28;20427;-88
2021/07/05 12:22:02;;;;;;;4.93;2.17;;;24.30;85.70;;;;;;5014066;28;20415;-87
2021/07/05 12:24:29;;;;;;;3.20;1.97;;;24.10;86.40;;;;;;5013696;28;20474;-87
2021/07/05 12:27:05;;;;;;;3.20;1.90;;;24.00;87.40;;;;;;5014276;28;20421;-88
2021/07/05 12:29:36;;;;;;;2.33;1.90;;;23.90;87.70;;;;;;5013721;28;20442;-88
2021/07/05 12:32:18;;;;;;;4.83;2.20;;;23.70;87.90;;;;;;5014706;28;20934;-87
2021/07/05 12:34:54;;;;;;;2.53;2.43;;;23.50;91.50;;;;;;5032725;28;20431;-87
2021/07/05 12:37:29;;;;;;;6.97;3.50;;;23.10;96.80;;;;;;5014897;28;20513;-85
2021/07/05 12:40:16;;;;;;;4.93;3.60;;;22.80;97.30;;;;;;5015162;28;20454;-87
2021/07/05 12:42:53;;;;;;;6.20;2.77;;;22.50;97.30;;;;;;5014990;28;20415;-87
2021/07/05 12:45:32;;;;;;;5.30;3.07;;;22.20;97.30;;;;;;5035408;28;20498;-86
2021/07/05 12:48:11;;;;;;;5.03;3.33;;;22.00;97.30;;;;;;5010567;28;20439;-86
2021/07/05 12:50:46;;;;;;;3.83;2.90;;;22.00;97.30;;;;;;5008045;28;20410;-87
2021/07/05 12:53:16;;;;;;;4.00;3.13;;;22.00;97.30;;;;;;5008671;28;20412;-88
2021/07/05 12:55:49;;;;;;;6.57;2.83;;;22.00;97.30;;;;;;5009209;28;20443;-87
2021/07/05 12:58:16;;;;;;;6.10;3.20;;;22.00;97.30;;;;;;5011940;28;20452;-88
2021/07/05 13:00:48;;;;;;;3.60;3.13;;;22.00;97.30;;;;;;5015623;28;20416;-87
2021/07/05 13:03:16;;;;;;;3.77;2.77;;;22.00;97.30;;;;;;5015894;28;20422;-88
2021/07/05 13:05:42;;;;;;;4.83;3.60;;;22.00;97.30;;;;;;5028087;28;20928;-88
2021/07/05 13:08:08;;;;;;;4.00;3.30;;;22.10;97.30;;;;;;4992389;28;20918;-88
2021/07/05 13:10:44;;;;;;;4.73;2.87;;;22.00;97.30;;;;;;5015592;28;20531;-85
2021/07/05 13:13:14;;;;;;;3.07;2.80;;;21.90;97.30;;;;;;5005910;28;20426;-87
2021/07/05 13:15:59;;;;;;;;;;;;;;;;;;;;;
2021/07/05 13:18:26;;;;;;;4.20;2.27;;;21.00;97.30;;;;;;5031213;28;20414;-86
2021/07/05 13:20:54;;;;;;;2.73;2.27;;;20.70;97.30;;;;;;5012078;28;20420;-87
2021/07/05 13:23:40;;;;;;;5.23;2.53;;;20.40;97.30;;;;;;5017325;28;20426;-88
2021/07/05 13:26:07;;;;;;;3.10;2.50;;;20.40;97.30;;;;;;5013478;28;20526;-87
2021/07/05 13:28:51;;;;;;;3.07;2.23;;;20.50;97.30;;;;;;5012906;28;20802;-87
2021/07/05 13:31:46;;;;;;;7.83;2.90;;;20.80;97.30;;;;;;5014160;28;20646;-87
2021/07/05 13:35:02;;;;;;;6.70;2.60;;;21.30;97.30;;;;;;5016018;28;20444;-87
2021/07/05 13:37:57;;;;;;;3.47;2.23;;;21.60;97.30;;;;;;5005310;28;20411;-87